Pagina principală
METAR-TAF:

METAR-TAF

Aeroporturi :

Maradi, Niger

Latitudine: 13-28N, longitudine: 007-05E, elevație: 372 m

Observații meteo curente

Raportul a fost făcut în urmă cu 57 de minute, la 10:00 UTC
Vânt 10 kt de la Vest
Temperatură 38°C
Umiditate 40%
Presiune 1013 hPa
Vizibilitate de 10 km sau mai mult
nu există nori sub 1.500 m și nici cumulonimbus

METAR: DRRM 211000Z 26010KT CAVOK 38/22 Q1013

Ora: 11:57 (10:57 UTC)


TAF: lipsă

Observații și prognoze meteo pentru peste 4.000 de aeroporturi (rapoarte METAR și TAF).

Stațiile disponibile sunt reprezentate pe hartă prin puncte galbene și roșii.

Țineți indicatorul mouse-ului pe punctul dorit pentru a vedea denumirea stației.

Apoi, faceți clic pentru a vedea observațiile și prognozele meteorologice.

Pentru a schimba harta: Pentru mărire, faceți clic pe butoanele verzi cu cruce neagră; pentru micșorare, pe butonul verde cu o liniuță; pentru hărți învecinate, pe săgețile verzi.


METAR-TAF: